createdAt,value
2023-01-27T00:01:36.674Z,8.67
2023-01-27T00:04:05.229Z,11.23
2023-01-27T00:06:36.304Z,25.10
2023-01-27T00:09:05.419Z,14.60
2023-01-27T00:11:51.258Z,14.20
2023-01-27T00:14:20.637Z,9.20
2023-01-27T00:16:49.102Z,10.70
2023-01-27T00:19:19.658Z,15.03
2023-01-27T00:22:06.909Z,17.03
2023-01-27T00:24:37.588Z,13.17
2023-01-27T00:27:08.899Z,13.83
2023-01-27T00:29:41.271Z,8.47
2023-01-27T00:32:26.828Z,9.83
2023-01-27T00:34:55.705Z,10.13
2023-01-27T00:37:27.946Z,17.47
2023-01-27T00:39:57.432Z,16.30
2023-01-27T00:42:25.895Z,9.57
2023-01-27T00:45:13.522Z,8.90
2023-01-27T00:47:41.533Z,8.73
2023-01-27T00:50:11.062Z,17.07
2023-01-27T00:52:39.318Z,9.40
2023-01-27T00:55:11.287Z,13.63
2023-01-27T00:57:39.595Z,14.17
2023-01-27T01:00:12.718Z,13.33
2023-01-27T01:02:41.621Z,10.90
2023-01-27T01:05:10.836Z,15.60
2023-01-27T01:07:39.365Z,14.83
2023-01-27T01:10:14.579Z,12.93
2023-01-27T01:12:42.806Z,13.23
2023-01-27T01:15:15.400Z,17.00
2023-01-27T01:17:43.589Z,17.40
2023-01-27T01:20:13.072Z,13.00
2023-01-27T01:22:42.304Z,13.93
2023-01-27T01:25:10.526Z,8.97
2023-01-27T01:27:38.531Z,13.90
2023-01-27T01:30:10.485Z,13.77
2023-01-27T01:32:40.051Z,14.83
2023-01-27T01:35:09.845Z,11.83
2023-01-27T01:37:38.305Z,15.17
2023-01-27T01:40:08.756Z,15.67
2023-01-27T01:42:58.917Z,12.83
2023-01-27T01:45:50.715Z,15.03
2023-01-27T01:48:24.682Z,16.90
2023-01-27T01:50:58.892Z,13.50
2023-01-27T01:53:34.084Z,18.73
2023-01-27T01:56:07.547Z,17.50
2023-01-27T01:58:36.800Z,15.23
2023-01-27T02:01:07.281Z,19.40
2023-01-27T02:03:42.746Z,19.10
2023-01-27T02:06:12.084Z,16.00
2023-01-27T02:08:42.673Z,19.77
2023-01-27T02:11:11.343Z,20.93
2023-01-27T02:13:40.662Z,16.07
2023-01-27T02:16:11.727Z,16.77
2023-01-27T02:18:42.612Z,18.27
2023-01-27T02:21:13.330Z,15.77
2023-01-27T02:23:56.929Z,19.30
2023-01-27T02:26:31.385Z,20.43
2023-01-27T02:29:01.469Z,18.67
2023-01-27T02:31:30.054Z,17.20
2023-01-27T02:34:03.786Z,20.17
2023-01-27T02:36:35.431Z,19.97
2023-01-27T02:39:06.343Z,19.40
2023-01-27T02:41:41.543Z,21.73
2023-01-27T02:44:13.258Z,21.30
2023-01-27T02:46:41.405Z,18.60
2023-01-27T02:49:09.643Z,15.97
2023-01-27T02:51:40.347Z,18.80
2023-01-27T02:54:10.007Z,19.50
2023-01-27T02:56:40.839Z,19.70
2023-01-27T02:59:10.177Z,14.43
2023-01-27T03:01:42.783Z,21.93
2023-01-27T03:04:11.909Z,18.57
2023-01-27T03:06:40.687Z,19.20
2023-01-27T03:09:09.406Z,16.43
2023-01-27T03:11:59.038Z,15.30
2023-01-27T03:14:44.406Z,21.63
2023-01-27T03:17:30.437Z,16.10
2023-01-27T03:19:58.581Z,17.37
2023-01-27T03:22:29.615Z,13.77
2023-01-27T03:24:58.855Z,14.83
2023-01-27T03:27:37.292Z,17.10
2023-01-27T03:30:31.356Z,13.07
2023-01-27T03:33:14.571Z,13.73
2023-01-27T03:36:13.969Z,13.00
2023-01-27T03:39:06.474Z,13.60
2023-01-27T03:41:53.413Z,14.30
2023-01-27T03:44:41.688Z,15.07
2023-01-27T03:47:11.492Z,14.60
2023-01-27T03:49:39.532Z,14.33
2023-01-27T03:52:08.184Z,15.73
2023-01-27T03:54:38.345Z,14.40
2023-01-27T03:57:06.745Z,21.67
2023-01-27T03:59:38.065Z,18.10
2023-01-27T04:02:23.762Z,21.93
2023-01-27T04:05:11.124Z,16.63
2023-01-27T04:07:39.937Z,17.10
2023-01-27T04:10:08.920Z,20.03
2023-01-27T04:12:37.053Z,18.87
2023-01-27T04:15:08.503Z,17.90
2023-01-27T04:17:41.910Z,15.50
2023-01-27T04:20:11.521Z,13.80
2023-01-27T04:22:41.407Z,20.30
2023-01-27T04:25:13.309Z,16.53
2023-01-27T04:27:43.721Z,15.97
2023-01-27T04:30:14.393Z,14.33
2023-01-27T04:32:44.698Z,15.43
2023-01-27T04:35:15.138Z,18.17
2023-01-27T04:37:47.374Z,22.33
2023-01-27T04:40:15.672Z,16.10
2023-01-27T04:42:43.652Z,17.30
2023-01-27T04:45:17.428Z,22.87
2023-01-27T04:47:45.762Z,15.33
2023-01-27T04:50:13.784Z,18.50
2023-01-27T04:52:42.436Z,18.67
2023-01-27T04:55:12.209Z,19.93
2023-01-27T04:57:41.011Z,15.57
2023-01-27T05:00:12.104Z,15.30
2023-01-27T05:02:41.705Z,15.20
2023-01-27T05:05:10.955Z,16.50
2023-01-27T05:07:40.422Z,22.23
2023-01-27T05:10:09.547Z,15.27
2023-01-27T05:12:38.604Z,17.90
2023-01-27T05:15:07.967Z,22.40
2023-01-27T05:17:36.393Z,19.83
2023-01-27T05:20:06.802Z,17.77
2023-01-27T05:22:35.003Z,21.20
2023-01-27T05:25:03.035Z,15.20
2023-01-27T05:27:31.939Z,18.07
2023-01-27T05:29:59.869Z,16.20
2023-01-27T05:32:28.567Z,27.83
2023-01-27T05:34:57.405Z,21.10
2023-01-27T05:37:27.379Z,14.40
2023-01-27T05:39:55.403Z,13.93
2023-01-27T05:42:23.354Z,11.80
2023-01-27T05:44:52.408Z,12.47
2023-01-27T05:47:20.496Z,13.27
2023-01-27T05:49:48.925Z,15.33
2023-01-27T05:52:17.325Z,16.40
2023-01-27T05:54:47.024Z,13.03
2023-01-27T05:57:15.587Z,11.63
2023-01-27T05:59:43.580Z,12.03
2023-01-27T06:02:12.184Z,12.27
2023-01-27T06:04:40.211Z,13.67
2023-01-27T06:07:08.628Z,13.80
2023-01-27T06:09:39.236Z,12.00
2023-01-27T06:12:10.176Z,11.67
2023-01-27T06:14:42.423Z,12.70
2023-01-27T06:17:11.010Z,11.50
2023-01-27T06:19:39.426Z,9.27
2023-01-27T06:22:07.824Z,14.40
2023-01-27T06:24:35.912Z,14.13
2023-01-27T06:27:08.330Z,9.00
2023-01-27T06:29:36.314Z,11.37
2023-01-27T06:32:08.457Z,11.87
2023-01-27T06:34:36.772Z,13.47
2023-01-27T06:37:05.003Z,14.10
2023-01-27T06:39:33.522Z,13.30
2023-01-27T06:42:07.793Z,10.57
2023-01-27T06:44:37.501Z,9.97
2023-01-27T06:47:05.992Z,12.07
2023-01-27T06:49:36.676Z,15.90
2023-01-27T06:52:04.991Z,10.40
2023-01-27T06:54:33.083Z,13.67
2023-01-27T06:57:03.262Z,9.23
2023-01-27T06:59:31.690Z,11.57
2023-01-27T07:02:03.320Z,13.60
2023-01-27T07:04:32.367Z,14.97
2023-01-27T07:07:00.338Z,12.50
2023-01-27T07:09:28.437Z,11.13
2023-01-27T07:11:56.913Z,12.53
2023-01-27T07:14:24.985Z,10.27
2023-01-27T07:16:53.465Z,10.73
2023-01-27T07:19:23.294Z,8.10
2023-01-27T07:21:51.743Z,6.70
2023-01-27T07:24:20.069Z,8.93
2023-01-27T07:26:48.525Z,8.13
2023-01-27T07:29:17.075Z,9.23
2023-01-27T07:31:45.320Z,9.13
2023-01-27T07:34:13.664Z,7.70
2023-01-27T07:36:43.185Z,8.90
2023-01-27T07:39:11.300Z,10.10
2023-01-27T07:41:40.320Z,8.10
2023-01-27T07:44:14.743Z,11.60
2023-01-27T07:46:45.110Z,11.20
2023-01-27T07:49:13.878Z,9.73
2023-01-27T07:51:43.257Z,8.60
2023-01-27T07:54:11.259Z,7.90
2023-01-27T07:56:40.500Z,9.10
2023-01-27T07:59:11.275Z,9.50
2023-01-27T08:01:41.675Z,14.27
2023-01-27T08:04:09.854Z,11.47
2023-01-27T08:06:41.807Z,10.70
2023-01-27T08:09:12.202Z,8.63
2023-01-27T08:11:41.069Z,8.37
2023-01-27T08:14:09.521Z,10.23
2023-01-27T08:16:37.824Z,7.27
2023-01-27T08:19:05.866Z,7.37
2023-01-27T08:21:34.204Z,7.63
2023-01-27T08:24:02.350Z,8.93
2023-01-27T08:26:32.224Z,6.80
2023-01-27T08:29:00.656Z,10.83
2023-01-27T08:31:28.707Z,6.90
2023-01-27T08:33:56.736Z,6.90
2023-01-27T08:36:27.508Z,7.87
2023-01-27T08:38:56.956Z,8.73
2023-01-27T08:41:27.291Z,6.47
2023-01-27T08:43:56.974Z,6.23
2023-01-27T08:46:25.088Z,9.80
2023-01-27T08:48:53.137Z,5.40
2023-01-27T08:51:21.433Z,5.57
2023-01-27T08:53:49.419Z,9.50
2023-01-27T08:56:18.751Z,7.30
2023-01-27T08:58:48.285Z,5.60
2023-01-27T09:01:18.516Z,5.90
2023-01-27T09:03:49.378Z,5.40
2023-01-27T09:06:19.390Z,6.83
2023-01-27T09:09:11.002Z,8.03
2023-01-27T09:11:43.911Z,7.70
2023-01-27T09:14:14.528Z,6.80
2023-01-27T09:16:43.981Z,6.63
2023-01-27T09:19:12.692Z,10.40
2023-01-27T09:21:41.915Z,7.33
2023-01-27T09:24:10.070Z,9.97
2023-01-27T09:26:38.216Z,10.17
2023-01-27T09:29:06.671Z,7.70
2023-01-27T09:31:34.754Z,8.17
2023-01-27T09:34:05.486Z,7.67
2023-01-27T09:36:38.039Z,7.50
2023-01-27T09:39:09.864Z,5.73
2023-01-27T09:42:05.427Z,8.70
2023-01-27T09:45:06.560Z,6.13
2023-01-27T09:47:51.154Z,9.33
2023-01-27T09:50:40.601Z,6.60
2023-01-27T09:53:46.466Z,6.90
2023-01-27T09:56:21.496Z,9.60
2023-01-27T09:59:08.472Z,7.03
2023-01-27T10:01:46.030Z,6.10
2023-01-27T10:04:43.622Z,10.20
2023-01-27T10:07:44.225Z,10.77
2023-01-27T10:10:31.806Z,8.40
2023-01-27T10:13:13.120Z,9.00
2023-01-27T10:15:59.525Z,9.67
2023-01-27T10:18:43.164Z,11.23
2023-01-27T10:21:21.582Z,8.00
2023-01-27T10:24:01.242Z,9.07
2023-01-27T10:26:36.741Z,9.07
2023-01-27T10:29:10.729Z,8.50
2023-01-27T10:31:47.629Z,7.33
2023-01-27T10:34:28.651Z,11.90
2023-01-27T10:37:14.691Z,8.10
2023-01-27T10:39:50.155Z,5.93
2023-01-27T10:45:31.598Z,7.73
2023-01-27T10:48:19.496Z,8.53
2023-01-27T10:50:52.558Z,8.00
2023-01-27T10:53:26.884Z,8.10
2023-01-27T10:56:01.678Z,8.47
2023-01-27T10:58:43.739Z,7.07
2023-01-27T11:01:22.663Z,9.37
2023-01-27T11:03:57.293Z,6.67
2023-01-27T11:06:29.177Z,7.30
2023-01-27T11:09:08.558Z,9.60
2023-01-27T11:11:45.790Z,7.87
2023-01-27T11:14:22.393Z,7.90
2023-01-27T11:16:53.601Z,6.70
2023-01-27T11:19:43.896Z,7.67
2023-01-27T11:22:21.288Z,6.60
2023-01-27T11:24:58.876Z,10.60
2023-01-27T11:27:56.683Z,6.93
2023-01-27T11:30:29.063Z,9.00
2023-01-27T11:33:04.630Z,7.23
2023-01-27T11:35:33.314Z,7.43
2023-01-27T11:38:15.071Z,5.40
2023-01-27T11:40:47.095Z,5.40
2023-01-27T11:43:22.416Z,5.13
2023-01-27T11:45:57.109Z,9.30
2023-01-27T11:48:25.199Z,6.07
2023-01-27T11:50:53.760Z,7.20
2023-01-27T11:53:27.962Z,5.70
2023-01-27T11:56:01.524Z,5.97
2023-01-27T11:58:37.625Z,5.33
2023-01-27T12:01:15.554Z,4.83
2023-01-27T12:03:54.249Z,8.50
2023-01-27T12:06:34.301Z,5.23
2023-01-27T12:09:02.716Z,4.23
2023-01-27T12:11:33.476Z,5.47
2023-01-27T12:14:07.248Z,3.70
2023-01-27T12:16:45.991Z,4.47
2023-01-27T12:19:25.433Z,2.70
2023-01-27T12:21:59.722Z,3.27
2023-01-27T12:24:30.958Z,4.03
2023-01-27T12:27:00.646Z,4.20
2023-01-27T12:29:40.025Z,5.17
2023-01-27T12:32:17.791Z,2.07
2023-01-27T12:34:52.454Z,2.20
2023-01-27T12:37:25.323Z,3.43
2023-01-27T12:40:00.674Z,2.67
2023-01-27T12:42:38.289Z,1.93
2023-01-27T12:45:25.542Z,1.83
2023-01-27T12:47:59.948Z,2.10
2023-01-27T12:50:34.815Z,2.30
2023-01-27T12:53:13.928Z,2.50
2023-01-27T12:55:45.785Z,2.90
2023-01-27T12:58:42.213Z,2.13
2023-01-27T13:01:26.598Z,2.43
2023-01-27T13:03:58.093Z,1.70
2023-01-27T13:06:35.550Z,3.80
2023-01-27T13:09:04.474Z,1.60
2023-01-27T13:11:39.148Z,1.80
2023-01-27T13:14:10.225Z,1.83
2023-01-27T13:16:40.622Z,1.80
2023-01-27T13:19:18.633Z,1.53
2023-01-27T13:21:50.160Z,1.77
2023-01-27T13:24:26.295Z,2.00
2023-01-27T13:26:56.657Z,2.33
2023-01-27T13:29:31.725Z,2.10
2023-01-27T13:32:06.755Z,2.70
2023-01-27T13:34:41.409Z,3.70
2023-01-27T13:37:15.242Z,3.20
2023-01-27T13:39:58.080Z,3.63
2023-01-27T13:42:31.428Z,4.40
2023-01-27T13:45:03.544Z,3.43
2023-01-27T13:47:50.758Z,3.83
2023-01-27T13:50:29.349Z,3.80
2023-01-27T13:52:59.828Z,4.13
2023-01-27T13:55:43.484Z,3.70
2023-01-27T13:58:24.412Z,4.20
2023-01-27T14:01:00.399Z,3.00
2023-01-27T14:03:45.585Z,4.77
2023-01-27T14:06:27.615Z,4.13
2023-01-27T14:09:05.126Z,3.23
2023-01-27T14:11:40.137Z,3.37
2023-01-27T14:14:43.692Z,3.20
2023-01-27T14:17:31.649Z,2.30
2023-01-27T14:20:28.016Z,2.83
2023-01-27T14:23:06.084Z,2.30
2023-01-27T14:25:41.974Z,2.90
2023-01-27T14:28:20.762Z,3.70
2023-01-27T14:30:57.732Z,1.80
2023-01-27T14:33:38.011Z,2.80
2023-01-27T14:36:17.453Z,2.03
2023-01-27T14:38:56.753Z,1.83
2023-01-27T14:41:32.935Z,3.63
2023-01-27T14:44:12.347Z,5.67
2023-01-27T14:46:53.419Z,1.50
2023-01-27T14:49:33.523Z,1.87
2023-01-27T14:52:13.240Z,2.53
2023-01-27T14:55:17.378Z,2.33
2023-01-27T14:57:55.163Z,2.20
2023-01-27T15:00:37.552Z,2.90
2023-01-27T15:03:23.018Z,2.30
2023-01-27T15:05:58.616Z,1.90
2023-01-27T15:08:35.096Z,1.30
2023-01-27T15:11:32.665Z,1.60
2023-01-27T15:14:20.986Z,1.67
2023-01-27T15:17:02.936Z,2.33
2023-01-27T15:19:43.700Z,1.87
2023-01-27T15:22:41.939Z,2.87
2023-01-27T15:25:36.916Z,2.60
2023-01-27T15:28:06.597Z,2.40
2023-01-27T15:30:40.612Z,3.00
2023-01-27T15:33:43.442Z,3.20
2023-01-27T15:36:19.561Z,1.73
2023-01-27T15:39:01.046Z,3.03
2023-01-27T15:41:33.031Z,3.13
2023-01-27T15:44:13.478Z,2.50
2023-01-27T15:47:04.575Z,2.60
2023-01-27T15:49:38.618Z,2.40
2023-01-27T15:52:16.963Z,4.47
2023-01-27T15:54:52.275Z,3.03
2023-01-27T15:57:30.291Z,2.53
2023-01-27T16:00:05.152Z,2.30
2023-01-27T16:02:45.656Z,3.17
2023-01-27T16:05:21.779Z,2.00
2023-01-27T16:07:54.177Z,2.90
2023-01-27T16:10:25.729Z,3.03
2023-01-27T16:13:21.596Z,10.10
2023-01-27T16:15:49.756Z,3.70
2023-01-27T16:18:26.949Z,18.93
2023-01-27T16:21:06.411Z,8.33
2023-01-27T16:23:44.642Z,17.73
2023-01-27T16:26:30.385Z,9.00
2023-01-27T16:29:11.414Z,5.80
2023-01-27T16:31:41.939Z,9.27
2023-01-27T16:34:23.161Z,3.40
2023-01-27T16:37:02.991Z,4.07
2023-01-27T16:39:45.875Z,6.20
2023-01-27T16:42:18.985Z,6.47
2023-01-27T16:44:52.876Z,16.03
2023-01-27T16:47:29.773Z,4.20
2023-01-27T16:50:00.845Z,3.50
2023-01-27T16:52:41.836Z,4.20
2023-01-27T16:55:21.746Z,3.40
2023-01-27T16:57:50.518Z,2.73
2023-01-27T17:00:24.069Z,2.90
2023-01-27T17:02:54.861Z,3.07
2023-01-27T17:05:23.810Z,2.80
2023-01-27T17:08:13.983Z,4.03
2023-01-27T17:10:44.575Z,5.80
2023-01-27T17:13:28.357Z,4.37
2023-01-27T17:16:00.053Z,3.70
2023-01-27T17:18:40.384Z,4.40
2023-01-27T17:21:26.275Z,5.27
2023-01-27T17:23:59.120Z,4.53
2023-01-27T17:26:28.734Z,3.43
2023-01-27T17:28:56.802Z,3.40
2023-01-27T17:31:27.003Z,3.37
2023-01-27T17:34:01.940Z,7.27
2023-01-27T17:36:31.259Z,4.00
2023-01-27T17:38:59.651Z,4.73
2023-01-27T17:41:35.822Z,4.20
2023-01-27T17:44:11.443Z,7.87
2023-01-27T17:46:42.295Z,4.83
2023-01-27T17:49:15.816Z,3.97
2023-01-27T17:51:46.464Z,4.97
2023-01-27T17:54:22.515Z,5.30
2023-01-27T17:56:54.767Z,5.97
2023-01-27T17:59:26.495Z,3.47
2023-01-27T18:02:00.960Z,7.10
2023-01-27T18:04:29.146Z,4.37
2023-01-27T18:06:58.348Z,4.60
2023-01-27T18:09:28.372Z,3.40
2023-01-27T18:11:59.506Z,4.00
2023-01-27T18:14:29.928Z,6.63
2023-01-27T18:17:05.855Z,4.30
2023-01-27T18:19:35.228Z,4.30
2023-01-27T18:22:12.334Z,6.03
2023-01-27T18:24:49.232Z,5.20
2023-01-27T18:27:23.531Z,4.30
2023-01-27T18:29:55.702Z,7.60
2023-01-27T18:32:25.496Z,5.77
2023-01-27T18:34:57.617Z,6.63
2023-01-27T18:37:30.693Z,4.83
2023-01-27T18:40:04.320Z,6.00
2023-01-27T18:42:32.889Z,4.33
2023-01-27T18:45:03.159Z,4.63
2023-01-27T18:47:39.440Z,3.50
2023-01-27T18:50:17.215Z,3.93
2023-01-27T18:52:46.807Z,4.00
2023-01-27T18:55:17.471Z,5.13
2023-01-27T18:57:48.943Z,5.07
2023-01-27T19:00:19.286Z,4.13
2023-01-27T19:02:51.523Z,8.13
2023-01-27T19:05:23.573Z,3.67
2023-01-27T19:07:52.621Z,4.20
2023-01-27T19:10:25.197Z,4.60
2023-01-27T19:12:59.140Z,6.50
2023-01-27T19:15:29.808Z,5.00
2023-01-27T19:18:04.665Z,8.03
2023-01-27T19:20:33.165Z,4.83
2023-01-27T19:23:01.158Z,6.33
2023-01-27T19:25:31.248Z,4.17
2023-01-27T19:28:04.661Z,5.97
2023-01-27T19:30:36.593Z,4.40
2023-01-27T19:33:16.281Z,6.00
2023-01-27T19:35:47.485Z,4.97
2023-01-27T19:38:17.631Z,5.97
2023-01-27T19:40:46.107Z,4.60
2023-01-27T19:43:15.329Z,5.33
2023-01-27T19:45:45.948Z,4.17
2023-01-27T19:48:19.379Z,6.57
2023-01-27T19:50:47.941Z,5.33
2023-01-27T19:53:19.315Z,3.97
2023-01-27T19:55:49.229Z,4.00
2023-01-27T19:58:23.548Z,5.07
2023-01-27T20:00:52.866Z,4.50
2023-01-27T20:03:23.017Z,5.40
2023-01-27T20:05:51.961Z,3.97
2023-01-27T20:08:21.275Z,3.47
2023-01-27T20:10:50.950Z,4.33
2023-01-27T20:13:21.264Z,3.50
2023-01-27T20:15:49.875Z,3.87
2023-01-27T20:18:20.376Z,4.10
2023-01-27T20:20:51.873Z,3.40
2023-01-27T20:23:20.485Z,2.50
2023-01-27T20:25:48.518Z,3.90
2023-01-27T20:28:17.430Z,6.70
2023-01-27T20:30:45.487Z,3.63
2023-01-27T20:33:16.969Z,3.60
2023-01-27T20:35:45.097Z,3.37
2023-01-27T20:38:15.393Z,3.70
2023-01-27T20:40:43.947Z,3.90
2023-01-27T20:43:13.489Z,3.00
2023-01-27T20:45:44.782Z,3.37
2023-01-27T20:48:13.662Z,4.00
2023-01-27T20:50:42.703Z,3.33
2023-01-27T20:53:10.771Z,4.90
2023-01-27T20:55:40.820Z,3.30
2023-01-27T20:58:09.416Z,10.37
2023-01-27T21:00:37.494Z,8.80
2023-01-27T21:03:06.004Z,3.40
2023-01-27T21:05:34.377Z,4.00
2023-01-27T21:08:03.342Z,3.20
2023-01-27T21:10:33.563Z,10.37
2023-01-27T21:13:03.362Z,3.10
2023-01-27T21:15:32.025Z,3.23
2023-01-27T21:18:00.068Z,3.37
2023-01-27T21:20:28.542Z,3.53
2023-01-27T21:22:56.538Z,5.03
2023-01-27T21:25:25.069Z,3.33
2023-01-27T21:27:53.136Z,4.10
2023-01-27T21:30:26.051Z,3.63
2023-01-27T21:32:54.104Z,3.80
2023-01-27T21:35:23.914Z,3.10
2023-01-27T21:37:52.794Z,2.50
2023-01-27T21:40:21.291Z,3.10
2023-01-27T21:43:07.074Z,2.50
2023-01-27T21:45:36.534Z,3.73
2023-01-27T21:48:05.321Z,2.50
2023-01-27T21:50:34.141Z,2.77
2023-01-27T21:53:02.207Z,3.07
2023-01-27T21:55:32.006Z,2.60
2023-01-27T21:57:59.975Z,3.87
2023-01-27T22:00:30.240Z,3.70
2023-01-27T22:03:06.903Z,5.20
2023-01-27T22:05:38.137Z,5.27
2023-01-27T22:08:07.559Z,4.17
2023-01-27T22:10:39.404Z,7.53
2023-01-27T22:13:09.511Z,5.30
2023-01-27T22:15:37.952Z,5.07
2023-01-27T22:18:09.816Z,8.93
2023-01-27T22:20:38.032Z,6.63
2023-01-27T22:23:06.504Z,5.03
2023-01-27T22:25:34.960Z,6.00
2023-01-27T22:28:02.959Z,6.53
2023-01-27T22:30:32.973Z,8.60
2023-01-27T22:33:02.080Z,4.77
2023-01-27T22:35:32.336Z,4.57
2023-01-27T22:38:02.394Z,6.20
2023-01-27T22:40:32.895Z,6.93
2023-01-27T22:43:00.997Z,4.87
2023-01-27T22:45:29.518Z,4.30
2023-01-27T22:47:59.947Z,6.70
2023-01-27T22:50:28.373Z,3.70
2023-01-27T22:52:59.199Z,4.40
2023-01-27T22:55:27.208Z,8.30
2023-01-27T22:57:56.283Z,5.20
2023-01-27T23:00:24.848Z,4.60
2023-01-27T23:02:53.378Z,5.93
2023-01-27T23:05:21.755Z,5.27
2023-01-27T23:07:53.379Z,5.53
2023-01-27T23:10:24.415Z,4.83
2023-01-27T23:12:52.862Z,3.73
2023-01-27T23:15:21.733Z,6.13
2023-01-27T23:17:49.784Z,4.20
2023-01-27T23:20:19.352Z,5.57
2023-01-27T23:22:48.715Z,5.90
2023-01-27T23:25:17.517Z,4.10
2023-01-27T23:27:47.342Z,4.00
2023-01-27T23:30:22.663Z,4.47
2023-01-27T23:32:51.540Z,3.60
2023-01-27T23:35:19.994Z,3.70
2023-01-27T23:37:48.161Z,5.70
2023-01-27T23:40:16.571Z,3.50
2023-01-27T23:42:45.032Z,4.97
2023-01-27T23:45:14.858Z,3.73
2023-01-27T23:47:43.078Z,4.37
2023-01-27T23:50:12.479Z,7.30
2023-01-27T23:52:40.720Z,4.90
2023-01-27T23:55:09.539Z,5.20
2023-01-27T23:57:39.941Z,4.53
